sensor_id;sensor_type;location;lat;lon;timestamp;P1;durP1;ratioP1;P2;durP2;ratioP2
48122;SDS011;33907;47.426;18.906;2023-04-24T00:02:15;12.68;;;7.18;;
48122;SDS011;33907;47.426;18.906;2023-04-24T00:04:43;11.77;;;7.07;;
48122;SDS011;33907;47.426;18.906;2023-04-24T00:07:13;11.35;;;6.87;;
48122;SDS011;33907;47.426;18.906;2023-04-24T00:09:41;10.45;;;6.40;;
48122;SDS011;33907;47.426;18.906;2023-04-24T00:12:09;10.45;;;7.25;;
48122;SDS011;33907;47.426;18.906;2023-04-24T00:14:37;12.00;;;7.62;;
48122;SDS011;33907;47.426;18.906;2023-04-24T00:17:05;14.30;;;7.68;;
48122;SDS011;33907;47.426;18.906;2023-04-24T00:19:33;11.65;;;7.50;;
48122;SDS011;33907;47.426;18.906;2023-04-24T00:22:02;14.60;;;7.97;;
48122;SDS011;33907;47.426;18.906;2023-04-24T00:24:29;16.60;;;9.00;;
48122;SDS011;33907;47.426;18.906;2023-04-24T00:26:57;15.93;;;10.32;;
48122;SDS011;33907;47.426;18.906;2023-04-24T00:29:24;13.95;;;9.75;;
48122;SDS011;33907;47.426;18.906;2023-04-24T00:31:52;16.75;;;10.32;;
48122;SDS011;33907;47.426;18.906;2023-04-24T00:34:20;11.43;;;9.35;;
48122;SDS011;33907;47.426;18.906;2023-04-24T00:36:47;16.48;;;9.98;;
48122;SDS011;33907;47.426;18.906;2023-04-24T00:39:18;13.98;;;9.25;;
48122;SDS011;33907;47.426;18.906;2023-04-24T00:41:46;12.95;;;9.80;;
48122;SDS011;33907;47.426;18.906;2023-04-24T00:44:15;15.73;;;10.00;;
48122;SDS011;33907;47.426;18.906;2023-04-24T00:46:42;11.32;;;8.88;;
48122;SDS011;33907;47.426;18.906;2023-04-24T00:49:10;13.98;;;9.05;;
48122;SDS011;33907;47.426;18.906;2023-04-24T00:51:38;13.57;;;9.77;;
48122;SDS011;33907;47.426;18.906;2023-04-24T00:54:07;14.63;;;8.95;;
48122;SDS011;33907;47.426;18.906;2023-04-24T00:56:35;16.80;;;10.15;;
48122;SDS011;33907;47.426;18.906;2023-04-24T00:59:03;15.60;;;8.63;;
48122;SDS011;33907;47.426;18.906;2023-04-24T01:01:31;15.45;;;9.05;;
48122;SDS011;33907;47.426;18.906;2023-04-24T01:04:00;14.18;;;8.82;;
48122;SDS011;33907;47.426;18.906;2023-04-24T01:06:29;12.52;;;8.70;;
48122;SDS011;33907;47.426;18.906;2023-04-24T01:08:58;14.02;;;8.35;;
48122;SDS011;33907;47.426;18.906;2023-04-24T01:11:29;13.48;;;8.30;;
48122;SDS011;33907;47.426;18.906;2023-04-24T01:13:57;11.50;;;8.73;;
48122;SDS011;33907;47.426;18.906;2023-04-24T01:16:26;13.88;;;9.07;;
48122;SDS011;33907;47.426;18.906;2023-04-24T01:18:53;13.23;;;8.90;;
48122;SDS011;33907;47.426;18.906;2023-04-24T01:21:21;13.20;;;8.57;;
48122;SDS011;33907;47.426;18.906;2023-04-24T01:23:50;12.98;;;8.32;;
48122;SDS011;33907;47.426;18.906;2023-04-24T01:26:18;18.83;;;9.88;;
48122;SDS011;33907;47.426;18.906;2023-04-24T01:28:47;16.17;;;8.80;;
48122;SDS011;33907;47.426;18.906;2023-04-24T01:31:15;13.95;;;9.57;;
48122;SDS011;33907;47.426;18.906;2023-04-24T01:33:43;12.05;;;8.32;;
48122;SDS011;33907;47.426;18.906;2023-04-24T01:36:10;15.85;;;10.15;;
48122;SDS011;33907;47.426;18.906;2023-04-24T01:38:38;16.35;;;9.80;;
48122;SDS011;33907;47.426;18.906;2023-04-24T01:41:06;14.45;;;9.90;;
48122;SDS011;33907;47.426;18.906;2023-04-24T01:43:33;15.68;;;9.48;;
48122;SDS011;33907;47.426;18.906;2023-04-24T01:46:01;15.20;;;9.38;;
48122;SDS011;33907;47.426;18.906;2023-04-24T01:48:28;12.80;;;10.13;;
48122;SDS011;33907;47.426;18.906;2023-04-24T01:50:57;12.02;;;9.80;;
48122;SDS011;33907;47.426;18.906;2023-04-24T01:53:24;13.93;;;9.63;;
48122;SDS011;33907;47.426;18.906;2023-04-24T01:55:52;14.02;;;10.10;;
48122;SDS011;33907;47.426;18.906;2023-04-24T01:58:19;17.35;;;10.93;;
48122;SDS011;33907;47.426;18.906;2023-04-24T02:00:47;13.52;;;9.95;;
48122;SDS011;33907;47.426;18.906;2023-04-24T02:03:15;14.35;;;10.18;;
48122;SDS011;33907;47.426;18.906;2023-04-24T02:05:46;13.57;;;9.65;;
48122;SDS011;33907;47.426;18.906;2023-04-24T02:08:13;14.10;;;9.45;;
48122;SDS011;33907;47.426;18.906;2023-04-24T02:10:41;17.20;;;11.18;;
48122;SDS011;33907;47.426;18.906;2023-04-24T02:13:08;14.85;;;9.88;;
48122;SDS011;33907;47.426;18.906;2023-04-24T02:15:36;12.45;;;9.40;;
48122;SDS011;33907;47.426;18.906;2023-04-24T02:18:03;13.55;;;10.43;;
48122;SDS011;33907;47.426;18.906;2023-04-24T02:20:31;14.82;;;9.93;;
48122;SDS011;33907;47.426;18.906;2023-04-24T02:23:01;12.10;;;9.05;;
48122;SDS011;33907;47.426;18.906;2023-04-24T02:25:28;11.20;;;8.95;;
48122;SDS011;33907;47.426;18.906;2023-04-24T02:27:56;12.57;;;9.70;;
48122;SDS011;33907;47.426;18.906;2023-04-24T02:30:23;15.52;;;9.77;;
48122;SDS011;33907;47.426;18.906;2023-04-24T02:32:51;12.68;;;8.98;;
48122;SDS011;33907;47.426;18.906;2023-04-24T02:35:19;14.73;;;10.20;;
48122;SDS011;33907;47.426;18.906;2023-04-24T02:37:47;15.07;;;9.75;;
48122;SDS011;33907;47.426;18.906;2023-04-24T02:40:14;15.07;;;9.85;;
48122;SDS011;33907;47.426;18.906;2023-04-24T02:42:42;18.60;;;10.80;;
48122;SDS011;33907;47.426;18.906;2023-04-24T02:45:09;14.05;;;9.23;;
48122;SDS011;33907;47.426;18.906;2023-04-24T02:47:37;14.50;;;9.52;;
48122;SDS011;33907;47.426;18.906;2023-04-24T02:50:05;15.68;;;9.32;;
48122;SDS011;33907;47.426;18.906;2023-04-24T02:52:33;15.48;;;9.70;;
48122;SDS011;33907;47.426;18.906;2023-04-24T02:55:00;15.25;;;10.57;;
48122;SDS011;33907;47.426;18.906;2023-04-24T02:57:28;17.08;;;10.02;;
48122;SDS011;33907;47.426;18.906;2023-04-24T02:59:56;14.35;;;9.02;;
48122;SDS011;33907;47.426;18.906;2023-04-24T03:02:23;14.35;;;9.70;;
48122;SDS011;33907;47.426;18.906;2023-04-24T03:04:51;11.80;;;8.02;;
48122;SDS011;33907;47.426;18.906;2023-04-24T03:07:20;12.55;;;8.82;;
48122;SDS011;33907;47.426;18.906;2023-04-24T03:09:47;12.27;;;9.18;;
48122;SDS011;33907;47.426;18.906;2023-04-24T03:12:15;12.55;;;9.35;;
48122;SDS011;33907;47.426;18.906;2023-04-24T03:14:45;14.15;;;8.27;;
48122;SDS011;33907;47.426;18.906;2023-04-24T03:17:12;13.90;;;8.73;;
48122;SDS011;33907;47.426;18.906;2023-04-24T03:19:40;11.65;;;8.30;;
48122;SDS011;33907;47.426;18.906;2023-04-24T03:22:08;12.18;;;8.48;;
48122;SDS011;33907;47.426;18.906;2023-04-24T03:24:36;11.77;;;8.40;;
48122;SDS011;33907;47.426;18.906;2023-04-24T03:27:04;15.10;;;8.60;;
48122;SDS011;33907;47.426;18.906;2023-04-24T03:29:32;12.95;;;8.73;;
48122;SDS011;33907;47.426;18.906;2023-04-24T03:31:59;11.82;;;8.27;;
48122;SDS011;33907;47.426;18.906;2023-04-24T03:34:28;13.20;;;8.60;;
48122;SDS011;33907;47.426;18.906;2023-04-24T03:36:56;11.65;;;8.82;;
48122;SDS011;33907;47.426;18.906;2023-04-24T03:39:23;12.80;;;9.20;;
48122;SDS011;33907;47.426;18.906;2023-04-24T03:41:52;13.88;;;8.98;;
48122;SDS011;33907;47.426;18.906;2023-04-24T03:44:20;12.07;;;8.93;;
48122;SDS011;33907;47.426;18.906;2023-04-24T03:46:48;15.93;;;9.55;;
48122;SDS011;33907;47.426;18.906;2023-04-24T03:49:16;11.35;;;8.77;;
48122;SDS011;33907;47.426;18.906;2023-04-24T03:51:44;11.60;;;8.60;;
48122;SDS011;33907;47.426;18.906;2023-04-24T03:54:13;10.25;;;7.87;;
48122;SDS011;33907;47.426;18.906;2023-04-24T03:56:41;13.38;;;9.32;;
48122;SDS011;33907;47.426;18.906;2023-04-24T03:59:09;10.60;;;8.15;;
48122;SDS011;33907;47.426;18.906;2023-04-24T04:01:37;13.73;;;9.20;;
48122;SDS011;33907;47.426;18.906;2023-04-24T04:04:08;15.48;;;8.75;;
48122;SDS011;33907;47.426;18.906;2023-04-24T04:06:36;13.68;;;8.85;;
48122;SDS011;33907;47.426;18.906;2023-04-24T04:09:04;13.65;;;9.60;;
48122;SDS011;33907;47.426;18.906;2023-04-24T04:11:32;13.38;;;9.95;;
48122;SDS011;33907;47.426;18.906;2023-04-24T04:13:59;15.23;;;9.73;;
48122;SDS011;33907;47.426;18.906;2023-04-24T04:16:29;18.17;;;10.90;;
48122;SDS011;33907;47.426;18.906;2023-04-24T04:18:58;15.05;;;11.15;;
48122;SDS011;33907;47.426;18.906;2023-04-24T04:21:26;14.18;;;10.52;;
48122;SDS011;33907;47.426;18.906;2023-04-24T04:23:55;14.68;;;10.60;;
48122;SDS011;33907;47.426;18.906;2023-04-24T04:26:24;14.63;;;11.00;;
48122;SDS011;33907;47.426;18.906;2023-04-24T04:28:53;14.55;;;11.10;;
48122;SDS011;33907;47.426;18.906;2023-04-24T04:31:21;14.87;;;11.60;;
48122;SDS011;33907;47.426;18.906;2023-04-24T04:33:48;16.62;;;11.45;;
48122;SDS011;33907;47.426;18.906;2023-04-24T04:36:16;15.77;;;12.35;;
48122;SDS011;33907;47.426;18.906;2023-04-24T04:38:46;17.40;;;11.60;;
48122;SDS011;33907;47.426;18.906;2023-04-24T04:41:14;16.70;;;11.82;;
48122;SDS011;33907;47.426;18.906;2023-04-24T04:43:45;17.83;;;12.60;;
48122;SDS011;33907;47.426;18.906;2023-04-24T04:46:14;13.65;;;10.90;;
48122;SDS011;33907;47.426;18.906;2023-04-24T04:48:42;18.35;;;11.40;;
48122;SDS011;33907;47.426;18.906;2023-04-24T04:51:10;16.48;;;11.63;;
48122;SDS011;33907;47.426;18.906;2023-04-24T04:53:38;17.37;;;11.30;;
48122;SDS011;33907;47.426;18.906;2023-04-24T04:56:06;15.05;;;12.25;;
48122;SDS011;33907;47.426;18.906;2023-04-24T04:58:33;13.95;;;11.45;;
48122;SDS011;33907;47.426;18.906;2023-04-24T05:01:02;14.87;;;11.82;;
48122;SDS011;33907;47.426;18.906;2023-04-24T05:03:30;16.30;;;11.25;;
48122;SDS011;33907;47.426;18.906;2023-04-24T05:05:58;15.75;;;11.48;;
48122;SDS011;33907;47.426;18.906;2023-04-24T05:08:26;17.85;;;12.18;;
48122;SDS011;33907;47.426;18.906;2023-04-24T05:10:54;18.42;;;11.82;;
48122;SDS011;33907;47.426;18.906;2023-04-24T05:13:22;16.37;;;11.52;;
48122;SDS011;33907;47.426;18.906;2023-04-24T05:16:06;14.13;;;11.68;;
48122;SDS011;33907;47.426;18.906;2023-04-24T05:18:34;18.40;;;12.05;;
48122;SDS011;33907;47.426;18.906;2023-04-24T05:21:02;15.45;;;11.10;;
48122;SDS011;33907;47.426;18.906;2023-04-24T05:23:29;20.20;;;10.95;;
48122;SDS011;33907;47.426;18.906;2023-04-24T05:25:57;15.93;;;11.05;;
48122;SDS011;33907;47.426;18.906;2023-04-24T05:28:25;17.05;;;11.93;;
48122;SDS011;33907;47.426;18.906;2023-04-24T05:30:56;16.77;;;11.68;;
48122;SDS011;33907;47.426;18.906;2023-04-24T05:33:26;16.35;;;11.18;;
48122;SDS011;33907;47.426;18.906;2023-04-24T05:35:54;17.77;;;11.48;;
48122;SDS011;33907;47.426;18.906;2023-04-24T05:38:22;17.25;;;11.12;;
48122;SDS011;33907;47.426;18.906;2023-04-24T05:40:49;15.15;;;10.48;;
48122;SDS011;33907;47.426;18.906;2023-04-24T05:43:17;17.30;;;12.18;;
48122;SDS011;33907;47.426;18.906;2023-04-24T05:45:45;14.52;;;11.45;;
48122;SDS011;33907;47.426;18.906;2023-04-24T05:48:12;16.62;;;11.68;;
48122;SDS011;33907;47.426;18.906;2023-04-24T05:50:40;17.15;;;11.48;;
48122;SDS011;33907;47.426;18.906;2023-04-24T05:53:08;18.83;;;12.77;;
48122;SDS011;33907;47.426;18.906;2023-04-24T05:55:37;14.00;;;11.68;;
48122;SDS011;33907;47.426;18.906;2023-04-24T05:58:05;16.00;;;12.00;;
48122;SDS011;33907;47.426;18.906;2023-04-24T06:00:34;16.08;;;11.50;;
48122;SDS011;33907;47.426;18.906;2023-04-24T06:03:02;17.55;;;11.70;;
48122;SDS011;33907;47.426;18.906;2023-04-24T06:05:31;15.57;;;11.45;;
48122;SDS011;33907;47.426;18.906;2023-04-24T06:07:58;15.93;;;12.18;;
48122;SDS011;33907;47.426;18.906;2023-04-24T06:10:27;18.40;;;12.80;;
48122;SDS011;33907;47.426;18.906;2023-04-24T06:12:56;16.75;;;12.70;;
48122;SDS011;33907;47.426;18.906;2023-04-24T06:15:29;17.35;;;13.40;;
48122;SDS011;33907;47.426;18.906;2023-04-24T06:17:58;16.27;;;12.27;;
48122;SDS011;33907;47.426;18.906;2023-04-24T06:20:26;19.35;;;13.70;;
48122;SDS011;33907;47.426;18.906;2023-04-24T06:22:54;19.05;;;13.43;;
48122;SDS011;33907;47.426;18.906;2023-04-24T06:25:21;22.62;;;14.68;;
48122;SDS011;33907;47.426;18.906;2023-04-24T06:27:50;16.52;;;13.57;;
48122;SDS011;33907;47.426;18.906;2023-04-24T06:30:17;17.77;;;14.10;;
48122;SDS011;33907;47.426;18.906;2023-04-24T06:32:45;17.83;;;14.63;;
48122;SDS011;33907;47.426;18.906;2023-04-24T06:35:14;17.23;;;13.45;;
48122;SDS011;33907;47.426;18.906;2023-04-24T06:37:42;20.05;;;15.05;;
48122;SDS011;33907;47.426;18.906;2023-04-24T06:40:10;19.35;;;13.95;;
48122;SDS011;33907;47.426;18.906;2023-04-24T06:42:38;21.77;;;15.48;;
48122;SDS011;33907;47.426;18.906;2023-04-24T06:45:08;17.85;;;14.00;;
48122;SDS011;33907;47.426;18.906;2023-04-24T06:47:35;22.00;;;14.32;;
48122;SDS011;33907;47.426;18.906;2023-04-24T06:50:05;19.42;;;15.18;;
48122;SDS011;33907;47.426;18.906;2023-04-24T06:52:33;22.17;;;14.32;;
48122;SDS011;33907;47.426;18.906;2023-04-24T06:55:03;20.10;;;15.30;;
48122;SDS011;33907;47.426;18.906;2023-04-24T06:57:32;18.35;;;15.45;;
48122;SDS011;33907;47.426;18.906;2023-04-24T06:59:59;20.65;;;14.18;;
48122;SDS011;33907;47.426;18.906;2023-04-24T07:02:27;18.73;;;15.38;;
48122;SDS011;33907;47.426;18.906;2023-04-24T07:04:54;20.45;;;15.55;;
48122;SDS011;33907;47.426;18.906;2023-04-24T07:07:22;23.02;;;14.95;;
48122;SDS011;33907;47.426;18.906;2023-04-24T07:09:51;20.17;;;14.43;;
48122;SDS011;33907;47.426;18.906;2023-04-24T07:12:19;19.27;;;15.10;;
48122;SDS011;33907;47.426;18.906;2023-04-24T07:14:49;18.45;;;13.82;;
48122;SDS011;33907;47.426;18.906;2023-04-24T07:17:17;18.02;;;13.85;;
48122;SDS011;33907;47.426;18.906;2023-04-24T07:19:45;17.10;;;13.07;;
48122;SDS011;33907;47.426;18.906;2023-04-24T07:22:14;19.70;;;14.60;;
48122;SDS011;33907;47.426;18.906;2023-04-24T07:24:44;20.52;;;14.95;;
48122;SDS011;33907;47.426;18.906;2023-04-24T07:27:11;18.90;;;13.18;;
48122;SDS011;33907;47.426;18.906;2023-04-24T07:29:39;18.95;;;13.10;;
48122;SDS011;33907;47.426;18.906;2023-04-24T07:32:11;21.25;;;13.25;;
48122;SDS011;33907;47.426;18.906;2023-04-24T07:34:39;16.62;;;11.80;;
48122;SDS011;33907;47.426;18.906;2023-04-24T07:37:07;15.45;;;12.40;;
48122;SDS011;33907;47.426;18.906;2023-04-24T07:39:35;16.35;;;12.13;;
48122;SDS011;33907;47.426;18.906;2023-04-24T07:42:03;15.75;;;11.38;;
48122;SDS011;33907;47.426;18.906;2023-04-24T07:44:30;15.40;;;10.63;;
48122;SDS011;33907;47.426;18.906;2023-04-24T07:46:59;15.60;;;11.65;;
48122;SDS011;33907;47.426;18.906;2023-04-24T07:49:27;16.12;;;10.75;;
48122;SDS011;33907;47.426;18.906;2023-04-24T07:51:54;15.52;;;11.35;;
48122;SDS011;33907;47.426;18.906;2023-04-24T07:54:22;15.88;;;10.48;;
48122;SDS011;33907;47.426;18.906;2023-04-24T07:56:50;15.55;;;10.65;;
48122;SDS011;33907;47.426;18.906;2023-04-24T07:59:20;14.77;;;10.57;;
48122;SDS011;33907;47.426;18.906;2023-04-24T08:01:47;17.92;;;11.77;;
48122;SDS011;33907;47.426;18.906;2023-04-24T08:04:15;19.05;;;12.02;;
48122;SDS011;33907;47.426;18.906;2023-04-24T08:06:43;15.65;;;11.00;;
48122;SDS011;33907;47.426;18.906;2023-04-24T08:09:12;15.38;;;11.00;;
48122;SDS011;33907;47.426;18.906;2023-04-24T08:11:39;15.10;;;10.52;;
48122;SDS011;33907;47.426;18.906;2023-04-24T08:14:07;17.92;;;10.25;;
48122;SDS011;33907;47.426;18.906;2023-04-24T08:16:34;19.73;;;11.00;;
48122;SDS011;33907;47.426;18.906;2023-04-24T08:19:02;15.30;;;10.60;;
48122;SDS011;33907;47.426;18.906;2023-04-24T08:21:30;14.57;;;9.55;;
48122;SDS011;33907;47.426;18.906;2023-04-24T08:23:57;14.73;;;10.73;;
48122;SDS011;33907;47.426;18.906;2023-04-24T08:26:25;13.73;;;10.02;;
48122;SDS011;33907;47.426;18.906;2023-04-24T08:28:52;14.07;;;9.85;;
48122;SDS011;33907;47.426;18.906;2023-04-24T08:31:20;16.95;;;10.30;;
48122;SDS011;33907;47.426;18.906;2023-04-24T08:33:48;14.95;;;9.93;;
48122;SDS011;33907;47.426;18.906;2023-04-24T08:36:15;11.80;;;9.02;;
48122;SDS011;33907;47.426;18.906;2023-04-24T08:38:43;15.73;;;9.73;;
48122;SDS011;33907;47.426;18.906;2023-04-24T08:41:10;14.05;;;9.70;;
48122;SDS011;33907;47.426;18.906;2023-04-24T08:43:38;14.60;;;10.15;;
48122;SDS011;33907;47.426;18.906;2023-04-24T08:46:06;12.65;;;8.90;;
48122;SDS011;33907;47.426;18.906;2023-04-24T08:48:38;16.15;;;10.32;;
48122;SDS011;33907;47.426;18.906;2023-04-24T08:51:09;15.73;;;10.30;;
48122;SDS011;33907;47.426;18.906;2023-04-24T08:53:37;15.93;;;10.73;;
48122;SDS011;33907;47.426;18.906;2023-04-24T08:56:05;13.50;;;9.63;;
48122;SDS011;33907;47.426;18.906;2023-04-24T08:58:33;12.88;;;10.50;;
48122;SDS011;33907;47.426;18.906;2023-04-24T09:01:00;12.48;;;9.13;;
48122;SDS011;33907;47.426;18.906;2023-04-24T09:03:29;15.43;;;9.13;;
48122;SDS011;33907;47.426;18.906;2023-04-24T09:05:57;13.95;;;9.38;;
48122;SDS011;33907;47.426;18.906;2023-04-24T09:08:26;13.20;;;9.02;;
48122;SDS011;33907;47.426;18.906;2023-04-24T09:10:55;10.80;;;8.05;;
48122;SDS011;33907;47.426;18.906;2023-04-24T09:13:25;12.90;;;8.90;;
48122;SDS011;33907;47.426;18.906;2023-04-24T09:15:53;14.98;;;9.90;;
48122;SDS011;33907;47.426;18.906;2023-04-24T09:18:21;14.63;;;8.90;;
48122;SDS011;33907;47.426;18.906;2023-04-24T09:21:07;13.32;;;8.65;;
48122;SDS011;33907;47.426;18.906;2023-04-24T09:23:35;12.85;;;8.50;;
48122;SDS011;33907;47.426;18.906;2023-04-24T09:26:03;12.50;;;8.82;;
48122;SDS011;33907;47.426;18.906;2023-04-24T09:28:38;15.07;;;9.02;;
48122;SDS011;33907;47.426;18.906;2023-04-24T09:31:11;12.93;;;8.85;;
48122;SDS011;33907;47.426;18.906;2023-04-24T09:33:53;12.60;;;8.25;;
48122;SDS011;33907;47.426;18.906;2023-04-24T09:39:08;13.18;;;9.05;;
48122;SDS011;33907;47.426;18.906;2023-04-24T09:41:55;12.10;;;9.15;;
48122;SDS011;33907;47.426;18.906;2023-04-24T09:44:27;14.13;;;9.57;;
48122;SDS011;33907;47.426;18.906;2023-04-24T09:46:59;11.40;;;9.38;;
48122;SDS011;33907;47.426;18.906;2023-04-24T09:49:30;16.65;;;9.57;;
48122;SDS011;33907;47.426;18.906;2023-04-24T09:52:08;13.25;;;8.63;;
48122;SDS011;33907;47.426;18.906;2023-04-24T09:54:37;12.95;;;8.45;;
48122;SDS011;33907;47.426;18.906;2023-04-24T09:57:07;15.18;;;8.60;;
48122;SDS011;33907;47.426;18.906;2023-04-24T09:59:35;13.23;;;8.77;;
48122;SDS011;33907;47.426;18.906;2023-04-24T10:02:19;14.57;;;8.35;;
48122;SDS011;33907;47.426;18.906;2023-04-24T10:04:54;14.45;;;8.70;;
48122;SDS011;33907;47.426;18.906;2023-04-24T10:09:53;13.75;;;8.90;;
48122;SDS011;33907;47.426;18.906;2023-04-24T10:12:21;13.15;;;8.25;;
48122;SDS011;33907;47.426;18.906;2023-04-24T10:14:50;11.55;;;8.80;;
48122;SDS011;33907;47.426;18.906;2023-04-24T10:17:17;11.30;;;9.07;;
48122;SDS011;33907;47.426;18.906;2023-04-24T10:19:47;11.43;;;8.35;;
48122;SDS011;33907;47.426;18.906;2023-04-24T10:22:14;15.48;;;9.52;;
48122;SDS011;33907;47.426;18.906;2023-04-24T10:24:44;14.02;;;8.27;;
48122;SDS011;33907;47.426;18.906;2023-04-24T10:27:13;13.40;;;9.55;;
48122;SDS011;33907;47.426;18.906;2023-04-24T10:29:43;14.05;;;8.73;;
48122;SDS011;33907;47.426;18.906;2023-04-24T10:32:12;13.48;;;9.00;;
48122;SDS011;33907;47.426;18.906;2023-04-24T10:34:39;16.90;;;8.73;;
48122;SDS011;33907;47.426;18.906;2023-04-24T10:37:07;15.43;;;7.95;;
48122;SDS011;33907;47.426;18.906;2023-04-24T10:39:35;15.02;;;8.75;;
48122;SDS011;33907;47.426;18.906;2023-04-24T10:42:13;12.85;;;8.80;;
48122;SDS011;33907;47.426;18.906;2023-04-24T10:44:42;15.27;;;9.15;;
48122;SDS011;33907;47.426;18.906;2023-04-24T10:47:13;12.45;;;9.05;;
48122;SDS011;33907;47.426;18.906;2023-04-24T10:49:41;16.08;;;9.60;;
48122;SDS011;33907;47.426;18.906;2023-04-24T10:52:09;16.60;;;9.82;;
48122;SDS011;33907;47.426;18.906;2023-04-24T10:54:41;15.45;;;8.98;;
48122;SDS011;33907;47.426;18.906;2023-04-24T10:57:25;14.50;;;9.80;;
48122;SDS011;33907;47.426;18.906;2023-04-24T11:02:48;14.05;;;7.93;;
48122;SDS011;33907;47.426;18.906;2023-04-24T11:05:18;10.05;;;6.55;;
48122;SDS011;33907;47.426;18.906;2023-04-24T11:10:44;7.95;;;3.67;;
48122;SDS011;33907;47.426;18.906;2023-04-24T11:13:16;7.93;;;4.30;;
48122;SDS011;33907;47.426;18.906;2023-04-24T11:15:44;7.90;;;3.92;;
48122;SDS011;33907;47.426;18.906;2023-04-24T11:18:14;7.65;;;3.40;;
48122;SDS011;33907;47.426;18.906;2023-04-24T11:20:43;7.90;;;3.60;;
48122;SDS011;33907;47.426;18.906;2023-04-24T11:23:12;7.37;;;4.03;;
48122;SDS011;33907;47.426;18.906;2023-04-24T11:25:40;7.18;;;3.33;;
48122;SDS011;33907;47.426;18.906;2023-04-24T11:28:08;7.97;;;4.07;;
48122;SDS011;33907;47.426;18.906;2023-04-24T11:30:41;10.43;;;4.00;;
48122;SDS011;33907;47.426;18.906;2023-04-24T11:33:09;7.20;;;3.75;;
48122;SDS011;33907;47.426;18.906;2023-04-24T11:35:39;7.40;;;3.72;;
48122;SDS011;33907;47.426;18.906;2023-04-24T11:38:07;7.40;;;4.40;;
48122;SDS011;33907;47.426;18.906;2023-04-24T11:40:51;6.30;;;3.60;;
48122;SDS011;33907;47.426;18.906;2023-04-24T11:43:19;6.90;;;3.55;;
48122;SDS011;33907;47.426;18.906;2023-04-24T11:45:50;6.25;;;2.67;;
48122;SDS011;33907;47.426;18.906;2023-04-24T11:48:18;10.65;;;3.05;;
48122;SDS011;33907;47.426;18.906;2023-04-24T11:50:50;8.60;;;3.15;;
48122;SDS011;33907;47.426;18.906;2023-04-24T11:53:20;8.25;;;3.15;;
48122;SDS011;33907;47.426;18.906;2023-04-24T11:55:49;6.20;;;2.60;;
48122;SDS011;33907;47.426;18.906;2023-04-24T11:58:16;9.85;;;3.22;;
48122;SDS011;33907;47.426;18.906;2023-04-24T12:00:54;10.20;;;2.92;;
48122;SDS011;33907;47.426;18.906;2023-04-24T12:03:23;7.53;;;2.55;;
48122;SDS011;33907;47.426;18.906;2023-04-24T12:05:51;6.72;;;2.75;;
48122;SDS011;33907;47.426;18.906;2023-04-24T12:08:27;8.52;;;3.28;;
48122;SDS011;33907;47.426;18.906;2023-04-24T12:10:56;7.78;;;2.95;;
48122;SDS011;33907;47.426;18.906;2023-04-24T12:13:25;6.37;;;2.58;;
48122;SDS011;33907;47.426;18.906;2023-04-24T12:15:53;6.10;;;2.90;;
48122;SDS011;33907;47.426;18.906;2023-04-24T12:18:24;6.05;;;2.62;;
48122;SDS011;33907;47.426;18.906;2023-04-24T12:20:52;9.75;;;3.17;;
48122;SDS011;33907;47.426;18.906;2023-04-24T12:23:35;9.70;;;3.10;;
48122;SDS011;33907;47.426;18.906;2023-04-24T12:26:06;7.70;;;3.65;;
48122;SDS011;33907;47.426;18.906;2023-04-24T12:28:37;5.55;;;3.10;;
48122;SDS011;33907;47.426;18.906;2023-04-24T12:31:05;7.00;;;2.87;;
48122;SDS011;33907;47.426;18.906;2023-04-24T12:33:34;8.70;;;2.80;;
48122;SDS011;33907;47.426;18.906;2023-04-24T12:36:02;6.82;;;2.60;;
48122;SDS011;33907;47.426;18.906;2023-04-24T12:38:30;7.03;;;2.85;;
48122;SDS011;33907;47.426;18.906;2023-04-24T12:41:05;8.27;;;3.05;;
48122;SDS011;33907;47.426;18.906;2023-04-24T12:43:34;10.18;;;3.80;;
48122;SDS011;33907;47.426;18.906;2023-04-24T12:46:02;6.05;;;2.70;;
48122;SDS011;33907;47.426;18.906;2023-04-24T12:48:31;5.93;;;3.10;;
48122;SDS011;33907;47.426;18.906;2023-04-24T12:50:59;7.78;;;3.30;;
48122;SDS011;33907;47.426;18.906;2023-04-24T12:53:30;8.35;;;2.80;;
48122;SDS011;33907;47.426;18.906;2023-04-24T12:55:58;5.32;;;3.05;;
48122;SDS011;33907;47.426;18.906;2023-04-24T12:58:26;6.32;;;3.30;;
48122;SDS011;33907;47.426;18.906;2023-04-24T13:00:53;5.60;;;2.95;;
48122;SDS011;33907;47.426;18.906;2023-04-24T13:03:21;7.43;;;3.62;;
48122;SDS011;33907;47.426;18.906;2023-04-24T13:05:50;4.75;;;2.78;;
48122;SDS011;33907;47.426;18.906;2023-04-24T13:08:17;6.45;;;3.60;;
48122;SDS011;33907;47.426;18.906;2023-04-24T13:10:45;7.28;;;3.12;;
48122;SDS011;33907;47.426;18.906;2023-04-24T13:13:13;8.95;;;3.17;;
48122;SDS011;33907;47.426;18.906;2023-04-24T13:15:41;7.72;;;3.20;;
48122;SDS011;33907;47.426;18.906;2023-04-24T13:18:08;6.68;;;3.33;;
48122;SDS011;33907;47.426;18.906;2023-04-24T13:20:36;11.77;;;3.65;;
48122;SDS011;33907;47.426;18.906;2023-04-24T13:23:03;8.30;;;4.10;;
48122;SDS011;33907;47.426;18.906;2023-04-24T13:25:34;7.70;;;3.37;;
48122;SDS011;33907;47.426;18.906;2023-04-24T13:28:02;9.30;;;4.25;;
48122;SDS011;33907;47.426;18.906;2023-04-24T13:30:30;11.30;;;4.47;;
48122;SDS011;33907;47.426;18.906;2023-04-24T13:32:58;8.55;;;4.55;;
48122;SDS011;33907;47.426;18.906;2023-04-24T13:35:26;8.52;;;4.45;;
48122;SDS011;33907;47.426;18.906;2023-04-24T13:37:53;11.07;;;4.65;;
48122;SDS011;33907;47.426;18.906;2023-04-24T13:40:21;10.93;;;5.60;;
48122;SDS011;33907;47.426;18.906;2023-04-24T13:42:48;11.77;;;5.62;;
48122;SDS011;33907;47.426;18.906;2023-04-24T13:45:16;15.07;;;6.57;;
48122;SDS011;33907;47.426;18.906;2023-04-24T13:47:52;17.33;;;6.20;;
48122;SDS011;33907;47.426;18.906;2023-04-24T13:50:21;11.82;;;6.05;;
48122;SDS011;33907;47.426;18.906;2023-04-24T13:52:48;9.68;;;6.87;;
48122;SDS011;33907;47.426;18.906;2023-04-24T13:55:17;10.05;;;6.37;;
48122;SDS011;33907;47.426;18.906;2023-04-24T13:57:45;9.48;;;6.12;;
48122;SDS011;33907;47.426;18.906;2023-04-24T14:00:12;11.27;;;6.60;;
48122;SDS011;33907;47.426;18.906;2023-04-24T14:02:40;12.23;;;7.47;;
48122;SDS011;33907;47.426;18.906;2023-04-24T14:05:08;12.85;;;8.27;;
48122;SDS011;33907;47.426;18.906;2023-04-24T14:07:38;11.55;;;7.15;;
48122;SDS011;33907;47.426;18.906;2023-04-24T14:10:05;14.18;;;7.65;;
48122;SDS011;33907;47.426;18.906;2023-04-24T14:12:33;12.68;;;7.47;;
48122;SDS011;33907;47.426;18.906;2023-04-24T14:15:01;12.35;;;8.70;;
48122;SDS011;33907;47.426;18.906;2023-04-24T14:17:29;14.90;;;8.75;;
48122;SDS011;33907;47.426;18.906;2023-04-24T14:19:57;17.48;;;9.70;;
48122;SDS011;33907;47.426;18.906;2023-04-24T14:22:26;14.70;;;9.50;;
48122;SDS011;33907;47.426;18.906;2023-04-24T14:24:54;14.00;;;9.60;;
48122;SDS011;33907;47.426;18.906;2023-04-24T14:27:22;13.50;;;9.80;;
48122;SDS011;33907;47.426;18.906;2023-04-24T14:29:49;12.80;;;9.57;;
48122;SDS011;33907;47.426;18.906;2023-04-24T14:32:17;14.40;;;9.60;;
48122;SDS011;33907;47.426;18.906;2023-04-24T14:34:44;12.93;;;8.85;;
48122;SDS011;33907;47.426;18.906;2023-04-24T14:37:12;12.05;;;9.52;;
48122;SDS011;33907;47.426;18.906;2023-04-24T14:39:39;13.35;;;8.57;;